Terminal Aerodrome Forecast
Issued by NWS

Home | Current Version | Previous Version | Text Only | Print | Product List | Glossary On
Versions: 1 2 3 4 5 6 7 8 9 10 11 12 13 14 15 16 17 18 19 20
000
FTUS45 KGGW 231700
TAFOLF
TAF
KOLF 231734Z 2318/2418 23006KT P6SM SCT120 BKN200
     FM232100 26011KT P6SM BKN130
     FM240000 24006KT P6SM BKN200
     FM241700 28012KT P6SM BKN250=

USA.gov is the U.S. government's official web portal to all federal, state and local government web resources and services.